sensor_id;sensor_type;location;lat;lon;timestamp;pressure;altitude;pressure_sealevel;temperature;humidity
22389;BME280;11362;48.102;11.620;2023-04-06T00:00:04;95400.09;;;23.70;30.27
22389;BME280;11362;48.102;11.620;2023-04-06T00:02:30;95399.31;;;23.69;29.98
22389;BME280;11362;48.102;11.620;2023-04-06T00:04:55;95392.97;;;23.69;30.24
22389;BME280;11362;48.102;11.620;2023-04-06T00:07:20;95392.19;;;23.68;30.26
22389;BME280;11362;48.102;11.620;2023-04-06T00:09:46;95392.19;;;23.68;30.30
22389;BME280;11362;48.102;11.620;2023-04-06T00:12:11;95385.06;;;23.67;30.32
22389;BME280;11362;48.102;11.620;2023-04-06T00:14:36;95383.50;;;23.66;30.16
22389;BME280;11362;48.102;11.620;2023-04-06T00:17:02;95390.63;;;23.67;30.27
22389;BME280;11362;48.102;11.620;2023-04-06T00:19:27;95390.63;;;23.67;30.28
22389;BME280;11362;48.102;11.620;2023-04-06T00:21:52;95386.63;;;23.68;30.46
22389;BME280;11362;48.102;11.620;2023-04-06T00:24:18;95381.09;;;23.68;30.27
22389;BME280;11362;48.102;11.620;2023-04-06T00:26:43;95387.44;;;23.69;30.29
22389;BME280;11362;48.102;11.620;2023-04-06T00:29:08;95385.88;;;23.68;30.30
22389;BME280;11362;48.102;11.620;2023-04-06T00:31:34;95387.44;;;23.69;30.29
22389;BME280;11362;48.102;11.620;2023-04-06T00:33:59;95382.28;;;23.67;30.36
22389;BME280;11362;48.102;11.620;2023-04-06T00:36:24;95385.88;;;23.68;30.21
22389;BME280;11362;48.102;11.620;2023-04-06T00:38:50;95383.09;;;23.68;30.28
22389;BME280;11362;48.102;11.620;2023-04-06T00:41:15;95378.34;;;23.65;30.35
22389;BME280;11362;48.102;11.620;2023-04-06T00:43:41;95381.94;;;23.65;30.35
22389;BME280;11362;48.102;11.620;2023-04-06T00:46:06;95382.69;;;23.66;30.28
22389;BME280;11362;48.102;11.620;2023-04-06T00:48:31;95390.63;;;23.67;30.48
22389;BME280;11362;48.102;11.620;2023-04-06T00:50:57;95379.94;;;23.66;30.34
22389;BME280;11362;48.102;11.620;2023-04-06T00:53:23;95375.19;;;23.66;30.39
22389;BME280;11362;48.102;11.620;2023-04-06T00:55:48;95381.09;;;23.68;30.30
22389;BME280;11362;48.102;11.620;2023-04-06T00:58:13;95379.53;;;23.67;30.36
22389;BME280;11362;48.102;11.620;2023-04-06T01:00:39;95374.78;;;23.68;30.20
22389;BME280;11362;48.102;11.620;2023-04-06T01:03:04;95379.53;;;23.67;30.26
22389;BME280;11362;48.102;11.620;2023-04-06T01:05:29;95382.69;;;23.66;30.27
22389;BME280;11362;48.102;11.620;2023-04-06T01:07:55;95387.84;;;23.67;30.26
22389;BME280;11362;48.102;11.620;2023-04-06T01:10:28;95377.94;;;23.66;30.17
22389;BME280;11362;48.102;11.620;2023-04-06T01:12:53;95387.06;;;23.67;30.25
22389;BME280;11362;48.102;11.620;2023-04-06T01:15:20;95383.50;;;23.66;30.22
22389;BME280;11362;48.102;11.620;2023-04-06T01:17:45;95388.63;;;23.68;30.15
22389;BME280;11362;48.102;11.620;2023-04-06T01:20:11;95385.06;;;23.67;30.31
22389;BME280;11362;48.102;11.620;2023-04-06T01:22:36;95382.28;;;23.67;30.30
22389;BME280;11362;48.102;11.620;2023-04-06T01:25:01;95380.72;;;23.66;30.22
22389;BME280;11362;48.102;11.620;2023-04-06T01:27:27;95381.94;;;23.65;30.34
22389;BME280;11362;48.102;11.620;2023-04-06T01:29:52;95383.50;;;23.66;30.27
22389;BME280;11362;48.102;11.620;2023-04-06T01:32:17;95375.97;;;23.67;30.28
22389;BME280;11362;48.102;11.620;2023-04-06T01:34:43;95373.97;;;23.67;30.10
22389;BME280;11362;48.102;11.620;2023-04-06T01:37:08;95368.06;;;23.65;30.14
22389;BME280;11362;48.102;11.620;2023-04-06T01:39:33;95369.22;;;23.68;30.16
22389;BME280;11362;48.102;11.620;2023-04-06T01:41:58;95368.44;;;23.67;30.51
22389;BME280;11362;48.102;11.620;2023-04-06T01:44:24;95365.28;;;23.65;30.22
22389;BME280;11362;48.102;11.620;2023-04-06T01:46:49;95366.06;;;23.66;30.21
22389;BME280;11362;48.102;11.620;2023-04-06T01:49:14;95360.50;;;23.66;30.23
22389;BME280;11362;48.102;11.620;2023-04-06T01:51:40;95373.63;;;23.65;30.11
22389;BME280;11362;48.102;11.620;2023-04-06T01:54:05;95371.59;;;23.66;30.17
22389;BME280;11362;48.102;11.620;2023-04-06T01:56:30;95358.53;;;23.66;30.13
22389;BME280;11362;48.102;11.620;2023-04-06T01:58:56;95362.13;;;23.67;30.06
22389;BME280;11362;48.102;11.620;2023-04-06T02:01:21;95359.38;;;23.63;30.31
22389;BME280;11362;48.102;11.620;2023-04-06T02:03:46;95362.53;;;23.65;30.16
22389;BME280;11362;48.102;11.620;2023-04-06T02:06:12;95368.06;;;23.65;30.12
22389;BME280;11362;48.102;11.620;2023-04-06T02:08:37;95358.53;;;23.66;30.13
22389;BME280;11362;48.102;11.620;2023-04-06T02:11:03;95354.19;;;23.65;30.14
22389;BME280;11362;48.102;11.620;2023-04-06T02:13:28;95356.63;;;23.63;30.09
22389;BME280;11362;48.102;11.620;2023-04-06T02:15:53;95354.59;;;23.64;30.14
22389;BME280;11362;48.102;11.620;2023-04-06T02:18:19;95355.75;;;23.66;30.22
22389;BME280;11362;48.102;11.620;2023-04-06T02:20:44;95357.75;;;23.66;30.17
22389;BME280;11362;48.102;11.620;2023-04-06T02:23:09;95354.97;;;23.66;29.99
22389;BME280;11362;48.102;11.620;2023-04-06T02:25:35;95356.16;;;23.65;30.06
22389;BME280;11362;48.102;11.620;2023-04-06T02:28:00;95351.84;;;23.64;29.98
22389;BME280;11362;48.102;11.620;2023-04-06T02:30:25;95354.19;;;23.65;30.04
22389;BME280;11362;48.102;11.620;2023-04-06T02:32:51;95354.97;;;23.66;30.00
22389;BME280;11362;48.102;11.620;2023-04-06T02:35:16;95354.19;;;23.65;30.09
22389;BME280;11362;48.102;11.620;2023-04-06T02:37:41;95344.69;;;23.66;30.03
22389;BME280;11362;48.102;11.620;2023-04-06T02:40:07;95350.22;;;23.66;30.08
22389;BME280;11362;48.102;11.620;2023-04-06T02:42:33;95357.34;;;23.67;30.06
22389;BME280;11362;48.102;11.620;2023-04-06T02:44:58;95349.41;;;23.66;29.99
22389;BME280;11362;48.102;11.620;2023-04-06T02:47:23;95347.44;;;23.66;30.19
22389;BME280;11362;48.102;11.620;2023-04-06T02:49:49;95349.00;;;23.67;30.29
22389;BME280;11362;48.102;11.620;2023-04-06T02:52:14;95354.97;;;23.66;30.06
22389;BME280;11362;48.102;11.620;2023-04-06T02:54:39;95345.47;;;23.67;30.44
22389;BME280;11362;48.102;11.620;2023-04-06T02:57:05;95343.09;;;23.65;30.05
22389;BME280;11362;48.102;11.620;2023-04-06T02:59:30;95350.22;;;23.66;30.04
22389;BME280;11362;48.102;11.620;2023-04-06T03:01:55;95347.44;;;23.66;29.96
22389;BME280;11362;48.102;11.620;2023-04-06T03:04:20;95339.13;;;23.66;30.17
22389;BME280;11362;48.102;11.620;2023-04-06T03:06:47;95352.59;;;23.68;30.05
22389;BME280;11362;48.102;11.620;2023-04-06T03:09:12;95346.25;;;23.67;30.08
22389;BME280;11362;48.102;11.620;2023-04-06T03:11:37;95343.09;;;23.65;30.05
22389;BME280;11362;48.102;11.620;2023-04-06T03:14:03;95343.09;;;23.65;29.83
22389;BME280;11362;48.102;11.620;2023-04-06T03:16:28;95351.78;;;23.67;29.94
22389;BME280;11362;48.102;11.620;2023-04-06T03:18:53;95350.59;;;23.68;30.00
22389;BME280;11362;48.102;11.620;2023-04-06T03:21:19;95353.78;;;23.67;30.11
22389;BME280;11362;48.102;11.620;2023-04-06T03:23:44;95351.78;;;23.67;30.00
22389;BME280;11362;48.102;11.620;2023-04-06T03:26:09;95343.09;;;23.65;29.97
22389;BME280;11362;48.102;11.620;2023-04-06T03:28:35;95354.19;;;23.65;29.98
22389;BME280;11362;48.102;11.620;2023-04-06T03:31:00;95348.66;;;23.65;30.11
22389;BME280;11362;48.102;11.620;2023-04-06T03:33:25;95351.78;;;23.67;29.97
22389;BME280;11362;48.102;11.620;2023-04-06T03:35:51;95354.97;;;23.66;30.03
22389;BME280;11362;48.102;11.620;2023-04-06T03:38:16;95344.69;;;23.66;30.13
22389;BME280;11362;48.102;11.620;2023-04-06T03:40:41;95348.25;;;23.67;30.15
22389;BME280;11362;48.102;11.620;2023-04-06T03:43:07;95349.00;;;23.67;30.08
22389;BME280;11362;48.102;11.620;2023-04-06T03:45:32;95345.03;;;23.68;29.83
22389;BME280;11362;48.102;11.620;2023-04-06T03:47:57;95349.81;;;23.68;29.95
22389;BME280;11362;48.102;11.620;2023-04-06T03:50:22;95355.75;;;23.66;30.06
22389;BME280;11362;48.102;11.620;2023-04-06T03:52:48;95351.78;;;23.67;30.08
22389;BME280;11362;48.102;11.620;2023-04-06T03:55:13;95361.31;;;23.66;30.10
22389;BME280;11362;48.102;11.620;2023-04-06T03:57:38;95365.66;;;23.67;30.08
22389;BME280;11362;48.102;11.620;2023-04-06T04:00:04;95360.09;;;23.67;30.01
22389;BME280;11362;48.102;11.620;2023-04-06T04:02:30;95358.91;;;23.68;29.92
22389;BME280;11362;48.102;11.620;2023-04-06T04:04:55;95370.44;;;23.67;29.96
22389;BME280;11362;48.102;11.620;2023-04-06T04:07:20;95370.00;;;23.68;30.02
22389;BME280;11362;48.102;11.620;2023-04-06T04:09:46;95363.69;;;23.68;29.95
22389;BME280;11362;48.102;11.620;2023-04-06T04:12:11;95373.97;;;23.67;29.85
22389;BME280;11362;48.102;11.620;2023-04-06T04:14:36;95378.31;;;23.68;29.92
22389;BME280;11362;48.102;11.620;2023-04-06T04:17:01;95374.78;;;23.68;30.03
22389;BME280;11362;48.102;11.620;2023-04-06T04:19:27;95375.13;;;23.70;29.98
22389;BME280;11362;48.102;11.620;2023-04-06T04:21:52;95383.47;;;23.70;29.96
22389;BME280;11362;48.102;11.620;2023-04-06T04:24:17;95382.66;;;23.69;30.03
22389;BME280;11362;48.102;11.620;2023-04-06T04:26:43;95382.66;;;23.69;29.93
22389;BME280;11362;48.102;11.620;2023-04-06T04:29:09;95387.44;;;23.69;29.96
22389;BME280;11362;48.102;11.620;2023-04-06T04:31:34;95390.22;;;23.69;29.82
22389;BME280;11362;48.102;11.620;2023-04-06T04:34:00;95381.09;;;23.68;29.79
22389;BME280;11362;48.102;11.620;2023-04-06T04:36:25;95378.72;;;23.70;29.98
22389;BME280;11362;48.102;11.620;2023-04-06T04:38:51;95378.72;;;23.70;30.16
22389;BME280;11362;48.102;11.620;2023-04-06T04:41:17;95384.25;;;23.70;30.14
22389;BME280;11362;48.102;11.620;2023-04-06T04:43:42;95371.56;;;23.69;30.17
22389;BME280;11362;48.102;11.620;2023-04-06T04:46:07;95377.09;;;23.69;30.23
22389;BME280;11362;48.102;11.620;2023-04-06T04:48:33;95376.72;;;23.71;30.37
22389;BME280;11362;48.102;11.620;2023-04-06T04:50:58;95380.28;;;23.71;30.21
22389;BME280;11362;48.102;11.620;2023-04-06T04:53:23;95379.88;;;23.69;30.05
22389;BME280;11362;48.102;11.620;2023-04-06T04:55:49;95385.03;;;23.71;30.23
22389;BME280;11362;48.102;11.620;2023-04-06T04:58:14;95387.41;;;23.72;30.26
22389;BME280;11362;48.102;11.620;2023-04-06T05:00:39;95379.84;;;23.73;30.32
22389;BME280;11362;48.102;11.620;2023-04-06T05:03:05;95379.44;;;23.74;30.46
22389;BME280;11362;48.102;11.620;2023-04-06T05:05:30;95379.03;;;23.76;30.59
22389;BME280;11362;48.102;11.620;2023-04-06T05:07:56;95382.53;;;23.80;30.86
22389;BME280;11362;48.102;11.620;2023-04-06T05:10:21;95380.56;;;23.80;30.94
22389;BME280;11362;48.102;11.620;2023-04-06T05:12:46;95380.50;;;23.84;30.98
22389;BME280;11362;48.102;11.620;2023-04-06T05:15:12;95376.16;;;23.83;30.93
22389;BME280;11362;48.102;11.620;2023-04-06T05:17:38;95380.16;;;23.82;31.00
22389;BME280;11362;48.102;11.620;2023-04-06T05:20:03;95381.72;;;23.83;31.23
22389;BME280;11362;48.102;11.620;2023-04-06T05:22:29;95385.25;;;23.87;31.12
22389;BME280;11362;48.102;11.620;2023-04-06T05:24:54;95383.63;;;23.89;31.32
22389;BME280;11362;48.102;11.620;2023-04-06T05:27:20;95384.78;;;23.92;31.44
22389;BME280;11362;48.102;11.620;2023-04-06T05:29:45;95385.19;;;23.90;31.40
22389;BME280;11362;48.102;11.620;2023-04-06T05:32:10;95389.53;;;23.91;31.69
22389;BME280;11362;48.102;11.620;2023-04-06T05:34:36;95393.91;;;23.92;31.51
22389;BME280;11362;48.102;11.620;2023-04-06T05:37:01;95399.06;;;23.90;31.66
22389;BME280;11362;48.102;11.620;2023-04-06T05:39:27;95393.16;;;23.88;31.47
22389;BME280;11362;48.102;11.620;2023-04-06T05:41:52;95396.72;;;23.89;31.40
22389;BME280;11362;48.102;11.620;2023-04-06T05:44:17;95402.28;;;23.89;31.52
22389;BME280;11362;48.102;11.620;2023-04-06T05:46:43;95389.59;;;23.88;31.34
22389;BME280;11362;48.102;11.620;2023-04-06T05:49:08;95401.47;;;23.88;31.42
22389;BME280;11362;48.102;11.620;2023-04-06T05:51:33;95383.63;;;23.89;31.21
22389;BME280;11362;48.102;11.620;2023-04-06T05:53:59;95372.16;;;23.87;31.28
22389;BME280;11362;48.102;11.620;2023-04-06T05:56:24;95362.63;;;23.88;31.17
22389;BME280;11362;48.102;11.620;2023-04-06T05:58:49;95387.25;;;23.86;31.06
22389;BME280;11362;48.102;11.620;2023-04-06T06:01:15;95393.97;;;23.85;30.91
22389;BME280;11362;48.102;11.620;2023-04-06T06:03:40;95374.56;;;23.85;30.89
22389;BME280;11362;48.102;11.620;2023-04-06T06:06:05;95375.75;;;23.84;31.09
22389;BME280;11362;48.102;11.620;2023-04-06T06:08:31;95369.81;;;23.86;31.00
22389;BME280;11362;48.102;11.620;2023-04-06T06:10:56;95401.50;;;23.85;30.88
22389;BME280;11362;48.102;11.620;2023-04-06T06:13:24;95422.13;;;23.84;30.99
22389;BME280;11362;48.102;11.620;2023-04-06T06:15:50;95422.91;;;23.84;30.90
22389;BME280;11362;48.102;11.620;2023-04-06T06:18:16;95424.09;;;23.83;30.59
22389;BME280;11362;48.102;11.620;2023-04-06T06:20:41;95418.19;;;23.81;30.59
22389;BME280;11362;48.102;11.620;2023-04-06T06:23:07;95418.53;;;23.83;30.78
22389;BME280;11362;48.102;11.620;2023-04-06T06:25:32;95420.53;;;23.86;30.57
22389;BME280;11362;48.102;11.620;2023-04-06T06:27:58;95415.00;;;23.86;30.64
22389;BME280;11362;48.102;11.620;2023-04-06T06:30:24;95425.25;;;23.89;30.50
22389;BME280;11362;48.102;11.620;2023-04-06T06:32:50;95424.47;;;23.89;30.66
22389;BME280;11362;48.102;11.620;2023-04-06T06:35:15;95398.34;;;23.86;30.33
22389;BME280;11362;48.102;11.620;2023-04-06T06:37:41;95398.34;;;23.83;29.70
22389;BME280;11362;48.102;11.620;2023-04-06T06:40:07;95393.63;;;23.80;29.74
22389;BME280;11362;48.102;11.620;2023-04-06T06:42:32;95400.38;;;23.79;29.45
22389;BME280;11362;48.102;11.620;2023-04-06T06:44:58;95401.97;;;23.76;28.99
22389;BME280;11362;48.102;11.620;2023-04-06T06:47:23;95403.59;;;23.77;29.13
22389;BME280;11362;48.102;11.620;2023-04-06T06:49:48;95405.16;;;23.78;29.39
22389;BME280;11362;48.102;11.620;2023-04-06T06:52:13;95411.88;;;23.81;29.49
22389;BME280;11362;48.102;11.620;2023-04-06T06:54:39;95412.22;;;23.83;29.52
22389;BME280;11362;48.102;11.620;2023-04-06T06:57:04;95413.38;;;23.85;29.41
22389;BME280;11362;48.102;11.620;2023-04-06T06:59:29;95414.59;;;23.84;29.53
22389;BME280;11362;48.102;11.620;2023-04-06T07:01:55;95410.22;;;23.83;29.61
22389;BME280;11362;48.102;11.620;2023-04-06T07:04:20;95407.88;;;23.82;29.60
22389;BME280;11362;48.102;11.620;2023-04-06T07:06:45;95385.66;;;23.85;29.75
22389;BME280;11362;48.102;11.620;2023-04-06T07:09:11;95392.78;;;23.86;29.77
22389;BME280;11362;48.102;11.620;2023-04-06T07:11:36;95384.47;;;23.86;29.96
22389;BME280;11362;48.102;11.620;2023-04-06T07:14:01;95433.63;;;23.82;29.38
22389;BME280;11362;48.102;11.620;2023-04-06T07:16:27;95390.44;;;23.81;29.32
22389;BME280;11362;48.102;11.620;2023-04-06T07:18:52;95408.25;;;23.84;29.25
22389;BME280;11362;48.102;11.620;2023-04-06T07:21:17;95404.66;;;23.83;29.40
22389;BME280;11362;48.102;11.620;2023-04-06T07:23:43;95413.44;;;23.82;29.51
22389;BME280;11362;48.102;11.620;2023-04-06T07:26:08;95411.44;;;23.82;29.43
22389;BME280;11362;48.102;11.620;2023-04-06T07:28:33;95405.09;;;23.82;29.48
22389;BME280;11362;48.102;11.620;2023-04-06T07:30:58;95403.91;;;23.83;29.43
22389;BME280;11362;48.102;11.620;2023-04-06T07:33:24;95402.34;;;23.82;29.37
22389;BME280;11362;48.102;11.620;2023-04-06T07:35:49;95407.50;;;23.80;29.53
22389;BME280;11362;48.102;11.620;2023-04-06T07:38:14;95414.19;;;23.82;29.36
22389;BME280;11362;48.102;11.620;2023-04-06T07:40:40;95403.09;;;23.82;29.63
22389;BME280;11362;48.102;11.620;2023-04-06T07:43:09;95412.59;;;23.85;29.64
22389;BME280;11362;48.102;11.620;2023-04-06T07:45:45;95412.97;;;23.87;29.58
22389;BME280;11362;48.102;11.620;2023-04-06T07:48:10;95413.38;;;23.89;29.45
22389;BME280;11362;48.102;11.620;2023-04-06T07:50:35;95411.38;;;23.89;29.45
22389;BME280;11362;48.102;11.620;2023-04-06T07:53:01;95408.59;;;23.89;29.00
22389;BME280;11362;48.102;11.620;2023-04-06T07:55:26;95409.41;;;23.90;29.51
22389;BME280;11362;48.102;11.620;2023-04-06T07:57:52;95410.56;;;23.92;29.30
22389;BME280;11362;48.102;11.620;2023-04-06T08:00:17;95407.78;;;23.92;29.40
22389;BME280;11362;48.102;11.620;2023-04-06T08:02:43;95403.03;;;23.89;29.36
22389;BME280;11362;48.102;11.620;2023-04-06T08:05:08;95407.38;;;23.90;29.40
22389;BME280;11362;48.102;11.620;2023-04-06T08:07:34;95410.16;;;23.90;29.47
22389;BME280;11362;48.102;11.620;2023-04-06T08:09:59;95403.00;;;23.93;29.58
22389;BME280;11362;48.102;11.620;2023-04-06T08:12:25;95405.38;;;23.94;29.38
22389;BME280;11362;48.102;11.620;2023-04-06T08:14:50;95406.94;;;23.95;29.40
22389;BME280;11362;48.102;11.620;2023-04-06T08:17:15;95404.97;;;23.96;29.38
22389;BME280;11362;48.102;11.620;2023-04-06T08:19:43;95406.94;;;23.95;29.29
22389;BME280;11362;48.102;11.620;2023-04-06T08:22:08;95408.91;;;23.95;29.39
22389;BME280;11362;48.102;11.620;2023-04-06T08:24:33;95412.91;;;23.94;29.55
22389;BME280;11362;48.102;11.620;2023-04-06T08:26:58;95409.34;;;23.93;29.37
22389;BME280;11362;48.102;11.620;2023-04-06T08:29:24;95409.34;;;23.93;29.40
22389;BME280;11362;48.102;11.620;2023-04-06T08:31:49;95407.75;;;23.96;29.43
22389;BME280;11362;48.102;11.620;2023-04-06T08:34:14;95401.75;;;23.97;29.32
22389;BME280;11362;48.102;11.620;2023-04-06T08:36:40;95407.28;;;23.97;29.23
22389;BME280;11362;48.102;11.620;2023-04-06T08:39:06;95408.50;;;23.96;29.04
22389;BME280;11362;48.102;11.620;2023-04-06T08:41:31;95410.88;;;23.98;29.18
22389;BME280;11362;48.102;11.620;2023-04-06T08:44:01;95407.34;;;23.94;29.33
22389;BME280;11362;48.102;11.620;2023-04-06T08:46:28;95405.69;;;24.00;29.19
22389;BME280;11362;48.102;11.620;2023-04-06T08:48:54;95412.84;;;23.97;29.23
22389;BME280;11362;48.102;11.620;2023-04-06T08:51:19;95403.31;;;23.98;29.25
22389;BME280;11362;48.102;11.620;2023-04-06T08:53:47;95405.28;;;24.01;29.19
22389;BME280;11362;48.102;11.620;2023-04-06T08:56:12;95404.06;;;24.02;29.10
22389;BME280;11362;48.102;11.620;2023-04-06T08:58:39;95403.28;;;24.02;29.23
22389;BME280;11362;48.102;11.620;2023-04-06T09:01:09;95402.88;;;24.03;29.14
22389;BME280;11362;48.102;11.620;2023-04-06T09:03:38;95407.66;;;24.03;29.18
22389;BME280;11362;48.102;11.620;2023-04-06T09:06:04;95401.28;;;24.02;29.17
22389;BME280;11362;48.102;11.620;2023-04-06T09:08:30;95395.75;;;24.02;29.28
22389;BME280;11362;48.102;11.620;2023-04-06T09:10:55;95390.56;;;24.04;29.12
22389;BME280;11362;48.102;11.620;2023-04-06T09:13:20;95397.31;;;24.03;29.11
22389;BME280;11362;48.102;11.620;2023-04-06T09:15:46;95391.75;;;24.03;29.42
22389;BME280;11362;48.102;11.620;2023-04-06T09:18:11;95389.00;;;24.03;29.27
22389;BME280;11362;48.102;11.620;2023-04-06T09:20:37;95379.91;;;24.03;29.16
22389;BME280;11362;48.102;11.620;2023-04-06T09:23:02;95391.75;;;24.03;29.22
22389;BME280;11362;48.102;11.620;2023-04-06T09:25:28;95385.81;;;24.05;29.18
22389;BME280;11362;48.102;11.620;2023-04-06T09:28:01;95389.34;;;24.05;29.13
22389;BME280;11362;48.102;11.620;2023-04-06T09:30:27;95387.78;;;24.04;29.19
22389;BME280;11362;48.102;11.620;2023-04-06T09:32:54;95389.34;;;24.05;29.17
22389;BME280;11362;48.102;11.620;2023-04-06T09:35:20;95394.50;;;24.07;29.16
22389;BME280;11362;48.102;11.620;2023-04-06T09:37:47;95392.50;;;24.07;29.29
22389;BME280;11362;48.102;11.620;2023-04-06T09:40:12;95390.91;;;24.10;29.40
22389;BME280;11362;48.102;11.620;2023-04-06T09:42:41;95384.53;;;24.09;29.47
22389;BME280;11362;48.102;11.620;2023-04-06T09:45:07;95382.13;;;24.11;29.45
22389;BME280;11362;48.102;11.620;2023-04-06T09:47:35;95377.03;;;24.10;29.70
22389;BME280;11362;48.102;11.620;2023-04-06T09:50:02;95383.28;;;24.14;29.50
22389;BME280;11362;48.102;11.620;2023-04-06T09:52:32;95381.72;;;24.13;29.56
22389;BME280;11362;48.102;11.620;2023-04-06T09:55:13;95373.00;;;24.14;29.68
22389;BME280;11362;48.102;11.620;2023-04-06T09:57:52;95370.22;;;24.14;29.75
22389;BME280;11362;48.102;11.620;2023-04-06T10:00:22;95406.09;;;23.98;24.88
22389;BME280;11362;48.102;11.620;2023-04-06T10:02:58;95394.38;;;23.14;22.97
22389;BME280;11362;48.102;11.620;2023-04-06T10:07:57;95396.75;;;23.12;22.05
22389;BME280;11362;48.102;11.620;2023-04-06T10:10:24;95391.34;;;22.98;22.16
22389;BME280;11362;48.102;11.620;2023-04-06T10:12:50;95387.59;;;22.78;20.95
22389;BME280;11362;48.102;11.620;2023-04-06T10:15:17;95387.25;;;23.13;22.80
22389;BME280;11362;48.102;11.620;2023-04-06T10:17:43;95392.16;;;23.38;23.29
22389;BME280;11362;48.102;11.620;2023-04-06T10:20:14;95394.78;;;23.49;23.97
22389;BME280;11362;48.102;11.620;2023-04-06T10:22:45;95387.66;;;23.51;23.99
22389;BME280;11362;48.102;11.620;2023-04-06T10:25:14;95391.16;;;23.55;24.61
22389;BME280;11362;48.102;11.620;2023-04-06T10:27:40;95380.84;;;23.56;24.59
22389;BME280;11362;48.102;11.620;2023-04-06T10:30:06;95382.00;;;23.58;25.05
22389;BME280;11362;48.102;11.620;2023-04-06T10:32:36;95379.25;;;23.58;25.04
22389;BME280;11362;48.102;11.620;2023-04-06T10:35:08;95355.94;;;23.52;24.56
22389;BME280;11362;48.102;11.620;2023-04-06T10:40:21;95349.50;;;23.59;25.20
22389;BME280;11362;48.102;11.620;2023-04-06T10:42:47;95350.31;;;23.59;25.21
22389;BME280;11362;48.102;11.620;2023-04-06T10:45:22;95345.13;;;23.61;25.42
22389;BME280;11362;48.102;11.620;2023-04-06T10:47:48;95368.88;;;23.62;25.67
22389;BME280;11362;48.102;11.620;2023-04-06T10:50:15;95374.22;;;23.46;24.53
22389;BME280;11362;48.102;11.620;2023-04-06T10:52:40;95338.56;;;23.48;25.10
22389;BME280;11362;48.102;11.620;2023-04-06T10:55:06;95341.72;;;23.50;25.41
22389;BME280;11362;48.102;11.620;2023-04-06T10:57:33;95333.34;;;23.54;25.54
22389;BME280;11362;48.102;11.620;2023-04-06T10:59:58;95339.25;;;23.56;25.74
22389;BME280;11362;48.102;11.620;2023-04-06T11:02:23;95336.84;;;23.58;26.04
22389;BME280;11362;48.102;11.620;2023-04-06T11:04:56;95334.88;;;23.58;26.31
22389;BME280;11362;48.102;11.620;2023-04-06T11:07:25;95334.03;;;23.61;26.18
22389;BME280;11362;48.102;11.620;2023-04-06T11:09:51;95355.00;;;23.62;26.41
22389;BME280;11362;48.102;11.620;2023-04-06T11:12:27;95298.78;;;23.62;26.80
22389;BME280;11362;48.102;11.620;2023-04-06T11:15:00;95299.56;;;23.62;26.92
22389;BME280;11362;48.102;11.620;2023-04-06T11:17:28;95330.44;;;23.64;27.08
22389;BME280;11362;48.102;11.620;2023-04-06T11:19:55;95352.19;;;23.66;27.15
22389;BME280;11362;48.102;11.620;2023-04-06T11:22:21;95320.91;;;23.65;27.07
22389;BME280;11362;48.102;11.620;2023-04-06T11:24:46;95316.94;;;23.66;27.25
22389;BME280;11362;48.102;11.620;2023-04-06T11:27:11;95313.81;;;23.64;27.25
22389;BME280;11362;48.102;11.620;2023-04-06T11:29:37;95310.59;;;23.66;27.14
22389;BME280;11362;48.102;11.620;2023-04-06T11:32:04;95337.56;;;23.65;27.30
22389;BME280;11362;48.102;11.620;2023-04-06T11:34:32;95300.31;;;23.66;27.29
22389;BME280;11362;48.102;11.620;2023-04-06T11:37:09;95302.28;;;23.66;27.37
22389;BME280;11362;48.102;11.620;2023-04-06T11:39:41;95304.22;;;23.69;27.52
22389;BME280;11362;48.102;11.620;2023-04-06T11:42:07;95297.13;;;23.68;27.62
22389;BME280;11362;48.102;11.620;2023-04-06T11:44:39;95290.78;;;23.67;27.73
22389;BME280;11362;48.102;11.620;2023-04-06T11:47:07;95286.78;;;23.68;27.69
22389;BME280;11362;48.102;11.620;2023-04-06T11:49:37;95297.13;;;23.68;27.65
22389;BME280;11362;48.102;11.620;2023-04-06T11:52:02;95295.13;;;23.68;27.62
22389;BME280;11362;48.102;11.620;2023-04-06T11:54:34;95290.38;;;23.69;27.64
22389;BME280;11362;48.102;11.620;2023-04-06T11:57:02;95288.38;;;23.69;27.53
22389;BME280;11362;48.102;11.620;2023-04-06T11:59:27;95289.97;;;23.70;27.61
22389;BME280;11362;48.102;11.620;2023-04-06T12:01:53;95288.38;;;23.69;27.89
22389;BME280;11362;48.102;11.620;2023-04-06T12:04:19;95285.59;;;23.69;27.74
22389;BME280;11362;48.102;11.620;2023-04-06T12:06:44;95284.41;;;23.70;27.78
22389;BME280;11362;48.102;11.620;2023-04-06T12:09:10;95285.19;;;23.71;27.65
22389;BME280;11362;48.102;11.620;2023-04-06T12:11:35;95278.88;;;23.70;27.76
22389;BME280;11362;48.102;11.620;2023-04-06T12:14:00;95280.84;;;23.70;27.80
22389;BME280;11362;48.102;11.620;2023-04-06T12:16:25;95284.41;;;23.70;27.88
22389;BME280;11362;48.102;11.620;2023-04-06T12:18:51;95279.63;;;23.71;27.87
22389;BME280;11362;48.102;11.620;2023-04-06T12:21:16;95280.44;;;23.71;27.87
22389;BME280;11362;48.102;11.620;2023-04-06T12:23:41;95274.88;;;23.71;27.65
22389;BME280;11362;48.102;11.620;2023-04-06T12:26:07;95273.69;;;23.72;28.19
22389;BME280;11362;48.102;11.620;2023-04-06T12:28:32;95272.88;;;23.72;27.77
22389;BME280;11362;48.102;11.620;2023-04-06T12:30:57;95271.69;;;23.73;27.85
22389;BME280;11362;48.102;11.620;2023-04-06T12:33:22;95269.69;;;23.73;27.87
22389;BME280;11362;48.102;11.620;2023-04-06T12:35:48;95266.94;;;23.73;27.76
22389;BME280;11362;48.102;11.620;2023-04-06T12:38:13;95266.94;;;23.73;27.92
22389;BME280;11362;48.102;11.620;2023-04-06T12:40:38;95257.03;;;23.72;27.86
22389;BME280;11362;48.102;11.620;2023-04-06T12:43:04;95254.25;;;23.72;27.81
22389;BME280;11362;48.102;11.620;2023-04-06T12:45:32;95251.50;;;23.72;27.85
22389;BME280;11362;48.102;11.620;2023-04-06T12:47:58;95258.97;;;23.75;27.86